createdAt,value
2022-12-14T05:01:14.298Z,5.63
2022-12-14T05:03:50.181Z,5.70
2022-12-14T05:06:23.964Z,5.53
2022-12-14T05:09:06.219Z,5.40
2022-12-14T05:11:56.422Z,6.10
2022-12-14T05:14:31.792Z,5.93
2022-12-14T05:17:08.761Z,6.00
2022-12-14T05:19:44.858Z,6.17
2022-12-14T05:22:20.700Z,5.97
2022-12-14T05:24:52.445Z,7.60
2022-12-14T05:27:24.138Z,5.70
2022-12-14T05:29:55.793Z,5.93
2022-12-14T05:32:29.001Z,5.40
2022-12-14T05:35:01.409Z,6.00
2022-12-14T05:37:33.060Z,6.27
2022-12-14T05:40:05.902Z,6.43
2022-12-14T05:42:44.163Z,6.20
2022-12-14T05:45:17.005Z,6.37
2022-12-14T05:47:49.981Z,6.47
2022-12-14T05:50:21.633Z,6.13
2022-12-14T05:52:53.330Z,6.70
2022-12-14T05:55:25.001Z,6.00
2022-12-14T05:57:56.626Z,5.93
2022-12-14T06:00:28.289Z,6.40
2022-12-14T06:03:01.302Z,6.17
2022-12-14T06:05:32.968Z,5.63
2022-12-14T06:08:04.980Z,6.57
2022-12-14T06:10:36.646Z,6.17
2022-12-14T06:13:08.319Z,6.17
2022-12-14T06:15:40.051Z,6.73
2022-12-14T06:18:13.111Z,6.00
2022-12-14T06:20:44.778Z,6.13
2022-12-14T06:23:16.432Z,5.80
2022-12-14T06:25:53.420Z,5.70
2022-12-14T06:28:25.065Z,6.10
2022-12-14T06:30:56.758Z,6.50
2022-12-14T06:33:30.315Z,5.47
2022-12-14T06:36:02.291Z,5.23
2022-12-14T06:38:35.205Z,6.17
2022-12-14T06:41:08.014Z,6.37
2022-12-14T06:43:39.705Z,6.27
2022-12-14T06:46:15.530Z,5.70
2022-12-14T06:48:50.636Z,5.63
2022-12-14T06:51:22.788Z,5.97
2022-12-14T06:53:55.932Z,5.83
2022-12-14T06:56:27.668Z,5.60
2022-12-14T06:58:59.328Z,6.30
2022-12-14T07:01:31.217Z,6.30
2022-12-14T07:04:04.545Z,6.17
2022-12-14T07:06:37.395Z,5.57
2022-12-14T07:09:11.707Z,5.80
2022-12-14T07:11:43.346Z,5.80
2022-12-14T07:14:16.177Z,6.33
2022-12-14T07:16:50.354Z,5.73
2022-12-14T07:19:23.752Z,6.50
2022-12-14T07:21:55.392Z,6.57
2022-12-14T07:24:27.046Z,5.87
2022-12-14T07:26:58.671Z,6.20
2022-12-14T07:29:34.680Z,6.50
2022-12-14T07:32:06.690Z,5.87
2022-12-14T07:34:39.711Z,5.70
2022-12-14T07:37:12.724Z,6.50
2022-12-14T07:39:44.386Z,6.43
2022-12-14T07:42:16.027Z,6.30
2022-12-14T07:44:47.905Z,6.20
2022-12-14T07:47:19.550Z,6.13
2022-12-14T07:49:52.557Z,5.70
2022-12-14T07:52:24.213Z,6.13
2022-12-14T07:54:55.896Z,6.87
2022-12-14T07:57:27.552Z,6.13
2022-12-14T07:59:59.203Z,6.07
2022-12-14T08:02:31.096Z,6.40
2022-12-14T08:05:10.597Z,6.50
2022-12-14T08:07:44.111Z,6.63
2022-12-14T08:10:15.870Z,6.37
2022-12-14T08:12:49.835Z,6.83
2022-12-14T08:15:21.508Z,6.30
2022-12-14T08:17:53.142Z,6.60
2022-12-14T08:20:26.314Z,6.80
2022-12-14T08:22:57.989Z,6.93
2022-12-14T08:25:29.661Z,7.27
2022-12-14T08:28:01.298Z,6.90
2022-12-14T08:30:32.993Z,6.30
2022-12-14T08:33:04.659Z,7.73
2022-12-14T08:35:37.707Z,5.83
2022-12-14T08:38:09.352Z,6.90
2022-12-14T08:40:41.012Z,7.17
2022-12-14T08:43:12.647Z,7.93
2022-12-14T08:45:44.276Z,6.77
2022-12-14T08:48:15.911Z,7.23
2022-12-14T08:50:49.877Z,7.53
2022-12-14T08:53:21.757Z,6.60
2022-12-14T08:55:53.408Z,7.57
2022-12-14T08:58:25.409Z,7.03
2022-12-14T09:01:01.127Z,7.37
2022-12-14T09:03:33.184Z,7.30
2022-12-14T09:06:08.034Z,7.63
2022-12-14T09:08:39.674Z,7.63
2022-12-14T09:11:12.047Z,7.90
2022-12-14T09:13:44.279Z,7.43
2022-12-14T09:16:17.536Z,6.93
2022-12-14T09:18:49.316Z,7.40
2022-12-14T09:21:22.454Z,7.03
2022-12-14T09:23:59.182Z,7.37
2022-12-14T09:26:31.608Z,7.30
2022-12-14T09:29:03.262Z,8.23
2022-12-14T09:31:34.980Z,7.77
2022-12-14T09:34:06.671Z,8.13
2022-12-14T09:36:39.697Z,7.73
2022-12-14T09:39:11.367Z,6.67
2022-12-14T09:41:52.407Z,7.80
2022-12-14T09:44:35.461Z,7.30
2022-12-14T09:47:11.131Z,7.67
2022-12-14T09:49:47.464Z,8.17
2022-12-14T09:52:22.193Z,7.33
2022-12-14T09:54:53.843Z,7.90
2022-12-14T09:57:28.586Z,7.63
2022-12-14T10:00:00.220Z,8.47
2022-12-14T10:02:39.994Z,8.60
2022-12-14T10:05:22.018Z,7.93
2022-12-14T10:08:00.671Z,8.13
2022-12-14T10:10:36.283Z,8.47
2022-12-14T10:13:14.047Z,9.03
2022-12-14T10:15:50.726Z,8.73
2022-12-14T10:18:59.539Z,8.67
2022-12-14T10:21:42.134Z,8.70
2022-12-14T10:24:17.756Z,8.40
2022-12-14T10:26:51.211Z,8.77
2022-12-14T10:29:28.456Z,9.33
2022-12-14T10:32:05.250Z,8.07
2022-12-14T10:34:39.567Z,9.83
2022-12-14T10:37:22.652Z,9.23
2022-12-14T10:40:09.012Z,8.70
2022-12-14T10:42:49.488Z,9.20
2022-12-14T10:45:40.370Z,9.07
2022-12-14T10:48:34.220Z,9.20
2022-12-14T10:51:07.831Z,8.57
2022-12-14T10:53:41.441Z,9.57
2022-12-14T10:56:17.096Z,8.90
2022-12-14T10:59:16.212Z,8.90
2022-12-14T11:01:48.720Z,9.07
2022-12-14T11:04:27.431Z,10.20
2022-12-14T11:06:59.534Z,9.10
2022-12-14T11:09:31.309Z,9.93
2022-12-14T11:12:06.713Z,9.50
2022-12-14T11:14:38.456Z,9.40
2022-12-14T11:17:29.217Z,9.77
2022-12-14T11:20:15.820Z,10.63
2022-12-14T11:22:48.155Z,9.57
2022-12-14T11:25:30.933Z,9.83
2022-12-14T11:28:05.766Z,9.67
2022-12-14T11:30:37.455Z,10.40
2022-12-14T11:33:13.395Z,9.47
2022-12-14T11:35:49.847Z,9.83
2022-12-14T11:38:21.743Z,10.27
2022-12-14T11:40:53.393Z,10.33
2022-12-14T11:43:28.108Z,10.23
2022-12-14T11:45:59.877Z,9.27
2022-12-14T11:48:32.260Z,10.40
2022-12-14T11:51:11.338Z,10.33
2022-12-14T11:53:42.984Z,10.33
2022-12-14T11:56:15.482Z,10.90
2022-12-14T11:58:50.675Z,10.00
2022-12-14T12:01:24.289Z,9.80
2022-12-14T12:03:56.924Z,10.67
2022-12-14T12:06:28.955Z,10.67
2022-12-14T12:09:01.728Z,10.17
2022-12-14T12:11:33.880Z,10.40
2022-12-14T12:14:18.731Z,9.87
2022-12-14T12:16:50.372Z,10.57
2022-12-14T12:19:24.624Z,9.97
2022-12-14T12:21:56.392Z,10.83
2022-12-14T12:24:29.789Z,11.63
2022-12-14T12:27:02.426Z,10.70
2022-12-14T12:29:37.901Z,10.93
2022-12-14T12:32:12.205Z,12.10
2022-12-14T12:34:45.951Z,11.03
2022-12-14T12:37:27.311Z,11.33
2022-12-14T12:40:12.127Z,10.77
2022-12-14T12:42:45.250Z,11.43
2022-12-14T12:45:20.584Z,11.70
2022-12-14T12:47:53.408Z,11.03
2022-12-14T12:50:26.771Z,10.53
2022-12-14T12:53:03.208Z,12.23
2022-12-14T12:55:38.047Z,11.93
2022-12-14T12:58:12.789Z,11.03
2022-12-14T13:00:45.779Z,10.83
2022-12-14T13:03:20.332Z,12.13
2022-12-14T13:05:52.567Z,11.63
2022-12-14T13:08:26.172Z,11.77
2022-12-14T13:13:52.378Z,11.13
2022-12-14T13:16:28.037Z,12.50
2022-12-14T13:19:19.013Z,11.27
2022-12-14T13:21:54.637Z,11.63
2022-12-14T13:24:27.964Z,11.70
2022-12-14T13:27:13.794Z,11.23
2022-12-14T13:30:00.430Z,12.23
2022-12-14T13:32:42.470Z,11.90
2022-12-14T13:35:22.289Z,12.30
2022-12-14T13:38:01.686Z,11.20
2022-12-14T13:40:58.128Z,12.10
2022-12-14T13:43:40.712Z,10.80
2022-12-14T13:46:15.444Z,12.20
2022-12-14T13:48:48.947Z,12.07
2022-12-14T13:51:25.387Z,11.73
2022-12-14T13:53:57.696Z,11.57
2022-12-14T13:56:33.389Z,11.47
2022-12-14T13:59:06.658Z,12.33
2022-12-14T14:01:55.964Z,12.93
2022-12-14T14:04:29.325Z,11.93
2022-12-14T14:07:35.446Z,12.23
2022-12-14T14:10:28.275Z,13.00
2022-12-14T14:12:59.926Z,13.67
2022-12-14T14:15:38.183Z,12.40
2022-12-14T14:18:21.595Z,12.03
2022-12-14T14:21:30.814Z,11.67
2022-12-14T14:24:18.030Z,11.20
2022-12-14T14:27:00.249Z,13.10
2022-12-14T14:29:31.936Z,12.83
2022-12-14T14:32:04.654Z,13.20
2022-12-14T14:34:48.275Z,13.13
2022-12-14T14:37:27.254Z,12.97
2022-12-14T14:40:26.188Z,12.80
2022-12-14T14:43:19.235Z,14.10
2022-12-14T14:45:52.101Z,13.57
2022-12-14T14:48:29.379Z,12.93
2022-12-14T14:51:04.103Z,13.27
2022-12-14T14:53:37.205Z,14.23
2022-12-14T14:56:33.690Z,12.60
2022-12-14T14:59:28.199Z,12.47
2022-12-14T15:02:00.427Z,13.90
2022-12-14T15:04:46.389Z,12.70
2022-12-14T15:07:21.428Z,13.07
2022-12-14T15:09:57.085Z,12.77
2022-12-14T15:12:33.093Z,14.10
2022-12-14T15:15:06.342Z,13.57
2022-12-14T15:17:37.998Z,13.13
2022-12-14T15:20:21.678Z,13.53
2022-12-14T15:22:53.773Z,13.73
2022-12-14T15:25:28.250Z,14.70
2022-12-14T15:28:02.419Z,12.77
2022-12-14T15:30:34.326Z,13.87
2022-12-14T15:33:08.165Z,13.73
2022-12-14T15:35:40.240Z,12.53
2022-12-14T15:38:16.840Z,13.73
2022-12-14T15:40:55.019Z,14.10
2022-12-14T15:43:27.085Z,15.90
2022-12-14T15:46:03.035Z,14.57
2022-12-14T15:48:35.227Z,15.13
2022-12-14T15:51:07.648Z,15.00
2022-12-14T15:53:40.782Z,15.83
2022-12-14T15:56:17.495Z,14.60
2022-12-14T15:58:49.174Z,15.77
2022-12-14T16:01:22.470Z,14.10
2022-12-14T16:03:55.147Z,15.33
2022-12-14T16:06:28.019Z,15.47
2022-12-14T16:09:02.699Z,16.37
2022-12-14T16:11:37.329Z,16.13
2022-12-14T16:14:17.299Z,15.30
2022-12-14T16:16:48.991Z,15.33
2022-12-14T16:19:27.668Z,15.07
2022-12-14T16:22:24.986Z,13.87
2022-12-14T16:25:03.261Z,13.67
2022-12-14T16:27:38.277Z,16.95
2022-12-14T16:30:18.395Z,14.93
2022-12-14T16:32:51.066Z,17.83
2022-12-14T16:35:23.586Z,16.63
2022-12-14T16:37:55.375Z,15.17
2022-12-14T16:40:32.431Z,15.13
2022-12-14T16:43:06.374Z,15.27
2022-12-14T16:46:12.252Z,15.70
2022-12-14T16:48:46.104Z,14.93
2022-12-14T16:51:58.145Z,15.83
2022-12-14T16:54:23.688Z,15.87
2022-12-14T16:57:02.396Z,15.13
2022-12-14T16:59:40.912Z,16.27
2022-12-14T17:02:34.298Z,15.70
2022-12-14T17:05:11.983Z,15.40
2022-12-14T17:07:43.619Z,15.93
2022-12-14T17:10:15.576Z,14.53
2022-12-14T17:12:47.264Z,14.83
2022-12-14T17:15:21.718Z,15.30
2022-12-14T17:17:54.104Z,14.50
2022-12-14T17:20:27.611Z,15.93
2022-12-14T17:22:59.913Z,15.40
2022-12-14T17:25:31.704Z,14.97
2022-12-14T17:28:03.429Z,15.87
2022-12-14T17:30:36.531Z,16.47
2022-12-14T17:33:08.803Z,15.67
2022-12-14T17:35:40.472Z,14.73
2022-12-14T17:38:13.254Z,15.20
2022-12-14T17:40:45.451Z,14.93
2022-12-14T17:43:19.281Z,15.47
2022-12-14T17:45:52.356Z,15.43
2022-12-14T17:48:24.086Z,16.33
2022-12-14T17:50:55.780Z,15.30
2022-12-14T17:53:29.101Z,15.50
2022-12-14T17:56:01.132Z,16.10
2022-12-14T17:58:32.806Z,17.57
2022-12-14T18:01:05.975Z,22.80
2022-12-14T18:03:37.783Z,20.43
2022-12-14T18:06:12.254Z,18.83
2022-12-14T18:08:44.035Z,17.07
2022-12-14T18:11:17.220Z,17.63
2022-12-14T18:13:49.098Z,17.57
2022-12-14T18:16:22.959Z,16.27
2022-12-14T18:18:54.705Z,15.83
2022-12-14T18:21:27.336Z,16.87
2022-12-14T18:23:59.065Z,17.90
2022-12-14T18:26:30.719Z,17.63
2022-12-14T18:29:02.442Z,16.70
2022-12-14T18:31:36.808Z,18.60
2022-12-14T18:34:09.605Z,18.43
2022-12-14T18:36:41.285Z,16.90
2022-12-14T18:39:12.959Z,18.97
2022-12-14T18:41:44.626Z,18.80
2022-12-14T18:44:16.267Z,19.43
2022-12-14T18:46:49.657Z,17.80
2022-12-14T18:49:21.415Z,17.77
2022-12-14T18:51:53.108Z,17.57
2022-12-14T18:54:24.764Z,17.83
2022-12-14T18:56:56.436Z,16.53
2022-12-14T18:59:28.099Z,16.97
2022-12-14T19:02:01.401Z,17.87
2022-12-14T19:04:33.154Z,16.23
2022-12-14T19:07:04.824Z,18.73
2022-12-14T19:09:36.494Z,18.30
2022-12-14T19:12:08.207Z,19.07
2022-12-14T19:14:39.880Z,20.10
2022-12-14T19:17:13.070Z,21.13
2022-12-14T19:19:44.867Z,21.37
2022-12-14T19:22:16.576Z,20.30
2022-12-14T19:24:52.293Z,19.60
2022-12-14T19:27:58.879Z,18.93
2022-12-14T19:30:17.663Z,19.30
2022-12-14T19:32:51.497Z,21.70
2022-12-14T19:35:23.553Z,19.57
2022-12-14T19:37:55.258Z,20.00
2022-12-14T19:40:26.938Z,18.90
2022-12-14T19:42:58.623Z,18.67
2022-12-14T19:45:30.272Z,18.93
2022-12-14T19:48:03.649Z,18.63
2022-12-14T19:50:35.280Z,18.10
2022-12-14T19:53:06.962Z,18.00
2022-12-14T19:55:38.621Z,18.30
2022-12-14T19:58:10.290Z,17.50
2022-12-14T20:00:41.961Z,19.57
2022-12-14T20:03:15.119Z,19.30
2022-12-14T20:05:50.191Z,19.07
2022-12-14T20:08:21.949Z,18.87
2022-12-14T20:10:53.604Z,19.83
2022-12-14T20:13:27.392Z,20.40
2022-12-14T20:15:59.391Z,18.93
2022-12-14T20:18:32.425Z,19.53
2022-12-14T20:21:05.523Z,18.67
2022-12-14T20:23:37.349Z,19.70
2022-12-14T20:26:12.618Z,19.43
2022-12-14T20:28:46.598Z,19.07
2022-12-14T20:31:20.902Z,18.73
2022-12-14T20:33:54.082Z,20.17
2022-12-14T20:36:25.709Z,19.87
2022-12-14T20:38:59.501Z,20.00
2022-12-14T20:41:31.768Z,19.53
2022-12-14T20:44:06.738Z,19.70
2022-12-14T20:46:39.399Z,22.07
2022-12-14T20:49:13.408Z,19.77
2022-12-14T20:51:45.456Z,19.80
2022-12-14T20:54:18.145Z,21.37
2022-12-14T20:56:49.897Z,21.93
2022-12-14T20:59:21.556Z,22.30
2022-12-14T21:01:56.226Z,22.23
2022-12-14T21:04:30.303Z,21.23
2022-12-14T21:07:01.947Z,20.80
2022-12-14T21:09:33.581Z,20.70
2022-12-14T21:12:05.451Z,21.57
2022-12-14T21:14:37.824Z,22.90
2022-12-14T21:17:09.704Z,22.57
2022-12-14T21:19:42.715Z,22.47
2022-12-14T21:22:15.390Z,21.97
2022-12-14T21:25:04.671Z,21.40
2022-12-14T21:27:38.455Z,21.87
2022-12-14T21:30:11.572Z,22.93
2022-12-14T21:32:43.238Z,22.07
2022-12-14T21:35:16.420Z,22.07
2022-12-14T21:37:48.072Z,23.00
2022-12-14T21:40:19.722Z,22.47
2022-12-14T21:42:51.386Z,22.33
2022-12-14T21:45:23.051Z,21.07
2022-12-14T21:47:54.706Z,20.53
2022-12-14T21:50:27.716Z,19.80
2022-12-14T21:52:59.404Z,22.27
2022-12-14T21:55:31.050Z,23.83
2022-12-14T21:58:02.706Z,23.33
2022-12-14T22:00:34.379Z,23.57
2022-12-14T22:03:06.208Z,23.20
2022-12-14T22:05:39.379Z,22.77
2022-12-14T22:08:11.020Z,22.63
2022-12-14T22:10:42.669Z,22.83
2022-12-14T22:13:14.302Z,24.63
2022-12-14T22:15:45.941Z,23.03
2022-12-14T22:18:21.052Z,23.63
2022-12-14T22:20:54.025Z,22.60
2022-12-14T22:23:25.686Z,22.07
2022-12-14T22:25:57.336Z,21.93
2022-12-14T22:28:28.979Z,22.30
2022-12-14T22:31:01.507Z,21.10
2022-12-14T22:33:33.408Z,21.67
2022-12-14T22:36:07.347Z,22.00
2022-12-14T22:38:39.019Z,20.27
2022-12-14T22:41:11.393Z,21.23
2022-12-14T22:43:43.564Z,20.33
2022-12-14T22:46:16.039Z,20.07
2022-12-14T22:48:47.705Z,20.73
2022-12-14T22:51:20.933Z,21.37
2022-12-14T22:53:52.638Z,20.83
2022-12-14T22:56:26.857Z,21.63
2022-12-14T22:59:01.729Z,20.83
